createdAt,value
2019-02-27T00:02:17.453Z,92.18
2019-02-27T00:08:41.259Z,92.71
2019-02-27T00:15:08.301Z,92.88
2019-02-27T00:21:48.932Z,92.61
2019-02-27T00:28:23.115Z,92.84
2019-02-27T00:34:56.070Z,92.63
2019-02-27T00:41:36.024Z,92.86
2019-02-27T00:48:02.645Z,92.75
2019-02-27T00:54:31.493Z,93.69
2019-02-27T01:04:35.182Z,93.43
2019-02-27T01:11:05.542Z,94.33
2019-02-27T01:17:51.054Z,94.05
2019-02-27T01:24:17.517Z,94.13
2019-02-27T01:30:06.639Z,93.84
2019-02-27T01:36:45.594Z,94.41
2019-02-27T01:43:12.276Z,94.22
2019-02-27T01:49:38.444Z,93.98
2019-02-27T01:56:06.282Z,93.86
2019-02-27T02:06:20.010Z,94.79
2019-02-27T02:13:15.194Z,94.90
2019-02-27T02:21:00.733Z,94.77
2019-02-27T02:28:00.919Z,94.97
2019-02-27T02:36:16.954Z,95.62
2019-02-27T02:43:24.176Z,95.00
2019-02-27T02:50:40.705Z,95.58
2019-02-27T02:57:57.865Z,95.57
2019-02-27T03:05:16.148Z,95.61
2019-02-27T03:12:35.722Z,95.43
2019-02-27T03:20:10.222Z,95.64
2019-02-27T03:27:35.637Z,95.62
2019-02-27T03:35:12.154Z,95.43
2019-02-27T03:43:25.033Z,95.44
2019-02-27T03:49:45.807Z,95.72
2019-02-27T03:56:56.872Z,96.14
2019-02-27T04:04:17.433Z,96.05
2019-02-27T04:10:56.384Z,95.65
2019-02-27T04:17:31.294Z,95.03
2019-02-27T04:27:09.795Z,95.31
2019-02-27T04:33:35.643Z,95.23
2019-02-27T04:40:04.701Z,95.10
2019-02-27T04:46:32.530Z,95.04
2019-02-27T04:53:11.484Z,95.28
2019-02-27T04:59:37.065Z,95.18
2019-02-27T05:06:03.122Z,95.04
2019-02-27T05:12:42.075Z,94.98
2019-02-27T05:19:05.677Z,95.02
2019-02-27T05:29:08.610Z,94.80
2019-02-27T05:35:34.461Z,94.86
2019-02-27T05:42:06.156Z,94.53
2019-02-27T05:48:29.334Z,95.09
2019-02-27T05:54:56.927Z,94.88
2019-02-27T06:01:22.776Z,96.01
2019-02-27T06:08:02.345Z,95.94
2019-02-27T06:14:28.773Z,96.22
2019-02-27T06:20:59.585Z,96.16
2019-02-27T06:30:50.494Z,96.74
2019-02-27T06:37:19.338Z,96.52
2019-02-27T06:43:58.907Z,96.74
2019-02-27T06:50:25.529Z,96.92
2019-02-27T06:56:48.790Z,97.04
2019-02-27T07:03:29.184Z,96.50
2019-02-27T07:10:00.763Z,97.21
2019-02-27T07:16:27.593Z,98.31
2019-02-27T07:23:06.543Z,98.56
2019-02-27T07:32:31.561Z,99.60
2019-02-27T07:39:09.990Z,99.25
2019-02-27T07:45:36.913Z,99.66
2019-02-27T07:52:04.550Z,100.00
2019-02-27T07:58:43.517Z,100.00
2019-02-27T08:05:10.598Z,100.00
2019-02-27T08:11:39.304Z,100.00
2019-02-27T08:18:12.191Z,100.00
2019-02-27T08:24:39.109Z,100.00
2019-02-27T08:34:19.853Z,100.00
2019-02-27T08:40:45.460Z,100.00
2019-02-27T08:47:15.548Z,100.00
2019-02-27T08:53:53.477Z,100.00
2019-02-27T09:00:25.124Z,100.00
2019-02-27T09:06:50.974Z,100.00
2019-02-27T09:13:18.002Z,100.00
2019-02-27T09:19:56.959Z,100.00
2019-02-27T09:26:24.283Z,100.00
2019-02-27T09:29:18.419Z,100.00
2019-02-27T09:35:18.074Z,100.00
2019-02-27T09:41:46.986Z,100.00
2019-02-27T09:48:09.511Z,100.00
2019-02-27T09:54:52.561Z,100.00
2019-02-27T10:01:23.574Z,100.00
2019-02-27T10:07:51.361Z,100.00
2019-02-27T10:14:28.153Z,100.00
2019-02-27T10:20:58.077Z,100.00
2019-02-27T10:27:25.476Z,100.00
2019-02-27T10:33:14.495Z,100.00
2019-02-27T10:39:42.335Z,99.81
2019-02-27T10:46:08.158Z,98.00
2019-02-27T10:52:39.023Z,94.86
2019-02-27T10:59:04.858Z,91.81
2019-02-27T11:05:42.655Z,89.67
2019-02-27T11:12:09.645Z,87.51
2019-02-27T11:18:35.436Z,84.71
2019-02-27T11:25:14.383Z,82.64
2019-02-27T11:31:42.311Z,80.79
2019-02-27T11:37:55.927Z,78.66
2019-02-27T11:44:21.747Z,76.21
2019-02-27T11:51:00.693Z,74.13
2019-02-27T11:57:30.541Z,72.69
2019-02-27T12:03:54.352Z,70.62
2019-02-27T12:10:38.354Z,69.27
2019-02-27T12:17:04.173Z,68.93
2019-02-27T12:23:35.859Z,66.60
2019-02-27T12:30:03.921Z,65.20
2019-02-27T12:39:41.292Z,61.84
2019-02-27T12:46:20.575Z,60.82
2019-02-27T12:52:48.116Z,59.32
2019-02-27T12:59:16.038Z,57.13
2019-02-27T13:05:54.998Z,55.81
2019-02-27T13:12:22.904Z,52.14
2019-02-27T13:18:51.894Z,52.23
2019-02-27T13:25:21.427Z,51.93
2019-02-27T13:31:48.423Z,49.09
2019-02-27T13:41:25.291Z,46.16
2019-02-27T13:47:51.114Z,49.09
2019-02-27T13:54:21.993Z,46.53
2019-02-27T14:00:46.604Z,45.59
2019-02-27T14:07:24.221Z,46.52
2019-02-27T14:13:50.554Z,47.15
2019-02-27T14:20:20.415Z,45.40
2019-02-27T14:26:59.364Z,46.24
2019-02-27T14:32:54.897Z,45.64
2019-02-27T14:43:08.973Z,40.59
2019-02-27T14:49:39.842Z,42.46
2019-02-27T14:56:09.179Z,42.26
2019-02-27T15:02:47.058Z,43.84
2019-02-27T15:09:13.321Z,42.26
2019-02-27T15:15:43.875Z,42.76
2019-02-27T15:22:21.274Z,44.62
2019-02-27T15:28:46.839Z,44.72
2019-02-27T15:34:36.547Z,44.24
2019-02-27T15:44:49.419Z,43.15
2019-02-27T15:51:16.090Z,41.55
2019-02-27T15:57:54.078Z,42.52
2019-02-27T16:04:21.882Z,42.61
2019-02-27T16:10:55.179Z,44.20
2019-02-27T16:17:31.929Z,45.99
2019-02-27T16:23:59.442Z,48.11
2019-02-27T16:30:31.244Z,48.68
2019-02-27T16:36:52.537Z,51.26
2019-02-27T16:46:31.036Z,54.46
2019-02-27T16:52:33.537Z,55.08
2019-02-27T16:59:08.207Z,56.07
2019-02-27T17:05:32.210Z,55.88
2019-02-27T17:12:04.226Z,56.19
2019-02-27T17:18:41.378Z,57.00
2019-02-27T17:25:13.103Z,57.47
2019-02-27T17:31:49.040Z,58.12
2019-02-27T17:38:21.056Z,59.79
2019-02-27T17:44:46.876Z,61.05
2019-02-27T17:55:03.498Z,62.16
2019-02-27T18:01:30.571Z,62.95
2019-02-27T18:07:56.421Z,63.40
2019-02-27T18:14:43.861Z,64.24
2019-02-27T18:21:08.475Z,65.51
2019-02-27T18:27:37.451Z,66.93
2019-02-27T18:34:01.933Z,67.61
2019-02-27T18:40:31.879Z,68.88
2019-02-27T18:46:59.788Z,68.77
2019-02-27T18:57:03.841Z,70.21
2019-02-27T19:03:30.642Z,70.99
2019-02-27T19:10:08.349Z,72.37
2019-02-27T19:16:55.155Z,73.65
2019-02-27T19:23:10.323Z,73.84
2019-02-27T19:29:50.059Z,74.43
2019-02-27T19:36:19.104Z,74.87
2019-02-27T19:42:46.816Z,75.52
2019-02-27T19:49:27.948Z,76.38
2019-02-27T19:55:55.579Z,76.65
2019-02-27T20:02:24.299Z,77.00
2019-02-27T20:08:56.516Z,77.72
2019-02-27T20:15:38.131Z,78.13
2019-02-27T20:25:44.600Z,78.57
2019-02-27T20:32:07.289Z,78.49
2019-02-27T20:38:31.084Z,78.52
2019-02-27T20:45:10.037Z,80.49
2019-02-27T20:51:39.812Z,79.52
2019-02-27T20:58:03.703Z,80.15
2019-02-27T21:04:16.159Z,81.38
2019-02-27T21:10:55.309Z,80.88
2019-02-27T21:17:23.829Z,81.79
2019-02-27T21:27:32.839Z,81.96
2019-02-27T21:33:58.773Z,82.44
2019-02-27T21:40:37.988Z,83.30
2019-02-27T21:47:03.818Z,83.72
2019-02-27T21:52:55.821Z,83.11
2019-02-27T21:59:22.916Z,84.29
2019-02-27T22:05:59.824Z,84.19
2019-02-27T22:12:32.386Z,85.57
2019-02-27T22:19:02.580Z,84.56
2019-02-27T22:28:55.172Z,85.28
2019-02-27T22:35:21.497Z,85.28
2019-02-27T22:42:00.450Z,85.41
2019-02-27T22:48:30.307Z,86.24
2019-02-27T22:54:57.933Z,87.49
2019-02-27T23:01:54.912Z,87.36
2019-02-27T23:08:22.999Z,86.51
2019-02-27T23:14:46.609Z,86.28
2019-02-27T23:21:26.630Z,86.50
2019-02-27T23:27:28.083Z,87.01
2019-02-27T23:33:54.274Z,86.87
2019-02-27T23:40:24.134Z,87.31
2019-02-27T23:47:01.061Z,87.22
2019-02-27T23:53:27.124Z,87.64
2019-02-27T23:59:52.474Z,88.07
